createdAt,value
2018-06-05T00:00:10.849Z,66.80
2018-06-05T00:02:41.148Z,67.30
2018-06-05T00:05:11.387Z,66.90
2018-06-05T00:07:41.660Z,66.90
2018-06-05T00:10:12.116Z,67.80
2018-06-05T00:12:42.434Z,67.80
2018-06-05T00:15:13.100Z,67.80
2018-06-05T00:17:43.382Z,68.30
2018-06-05T00:20:13.687Z,68.70
2018-06-05T00:22:44.045Z,68.80
2018-06-05T00:25:14.480Z,69.30
2018-06-05T00:27:44.863Z,69.40
2018-06-05T00:30:15.259Z,69.10
2018-06-05T00:32:45.809Z,69.00
2018-06-05T00:35:16.170Z,68.60
2018-06-05T00:37:46.463Z,68.80
2018-06-05T00:40:16.851Z,69.00
2018-06-05T00:42:47.374Z,69.00
2018-06-05T00:45:17.675Z,69.10
2018-06-05T00:47:47.995Z,69.40
2018-06-05T00:52:48.396Z,69.40
2018-06-05T00:55:18.684Z,69.30
2018-06-05T00:57:49.055Z,69.50
2018-06-05T01:00:19.339Z,69.30
2018-06-05T01:02:49.769Z,69.30
2018-06-05T01:05:20.006Z,69.60
2018-06-05T01:07:50.428Z,69.70
2018-06-05T01:10:20.752Z,69.60
2018-06-05T01:12:51.077Z,69.70
2018-06-05T01:20:21.381Z,70.00
2018-06-05T01:25:21.582Z,70.40
2018-06-05T01:27:52.024Z,69.80
2018-06-05T01:30:22.391Z,69.50
2018-06-05T01:32:52.743Z,69.70
2018-06-05T01:35:23.043Z,69.40
2018-06-05T01:37:53.438Z,69.00
2018-06-05T01:40:23.725Z,68.30
2018-06-05T01:42:54.411Z,68.30
2018-06-05T01:45:24.754Z,68.10
2018-06-05T01:47:55.254Z,67.80
2018-06-05T01:50:25.844Z,67.50
2018-06-05T01:52:56.173Z,67.50
2018-06-05T01:55:26.519Z,67.50
2018-06-05T01:57:56.811Z,67.50
2018-06-05T02:00:27.387Z,67.50
2018-06-05T02:02:57.768Z,67.70
2018-06-05T02:07:57.986Z,68.00
2018-06-05T02:10:28.362Z,68.00
2018-06-05T02:12:58.662Z,68.30
2018-06-05T02:15:28.944Z,68.30
2018-06-05T02:20:29.271Z,69.30
2018-06-05T02:22:59.668Z,68.60
2018-06-05T02:25:29.990Z,68.80
2018-06-05T02:28:00.570Z,68.80
2018-06-05T02:30:30.928Z,68.60
2018-06-05T02:33:01.230Z,69.10
2018-06-05T02:38:01.475Z,69.60
2018-06-05T02:40:31.844Z,69.80
2018-06-05T02:43:02.232Z,70.20
2018-06-05T02:45:32.624Z,70.30
2018-06-05T02:48:02.930Z,70.40
2018-06-05T02:50:33.306Z,70.40
2018-06-05T02:53:03.776Z,70.00
2018-06-05T02:55:34.113Z,70.00
2018-06-05T02:58:04.487Z,69.90
2018-06-05T03:00:34.835Z,69.80
2018-06-05T03:03:05.145Z,69.90
2018-06-05T03:05:35.468Z,69.60
2018-06-05T03:08:06.155Z,69.90
2018-06-05T03:10:36.495Z,69.90
2018-06-05T03:13:06.965Z,69.70
2018-06-05T03:15:37.310Z,69.70
2018-06-05T03:20:37.600Z,69.20
2018-06-05T03:23:08.058Z,68.80
2018-06-05T03:25:38.461Z,67.90
2018-06-05T03:30:38.805Z,68.20
2018-06-05T03:33:09.112Z,68.00
2018-06-05T03:35:39.431Z,67.20
2018-06-05T03:38:09.748Z,67.30
2018-06-05T03:43:10.147Z,67.30
2018-06-05T03:45:40.379Z,66.70
2018-06-05T03:48:10.728Z,66.40
2018-06-05T03:50:41.052Z,65.80
2018-06-05T03:53:11.418Z,66.20
2018-06-05T03:55:41.659Z,66.70
2018-06-05T03:58:11.992Z,66.40
2018-06-05T04:00:42.359Z,66.50
2018-06-05T04:03:13.739Z,66.10
2018-06-05T04:05:44.162Z,65.90
2018-06-05T04:08:14.460Z,65.40
2018-06-05T04:10:44.819Z,65.20
2018-06-05T04:13:15.184Z,65.40
2018-06-05T04:15:45.450Z,64.40
2018-06-05T04:20:45.694Z,64.40
2018-06-05T04:23:16.090Z,64.20
2018-06-05T04:25:46.419Z,64.30
2018-06-05T04:28:16.762Z,64.20
2018-06-05T04:30:47.294Z,64.00
2018-06-05T04:33:17.683Z,64.00
2018-06-05T04:35:48.016Z,63.50
2018-06-05T04:38:18.315Z,63.80
2018-06-05T04:40:48.712Z,63.10
2018-06-05T04:43:19.144Z,63.00
2018-06-05T04:45:49.480Z,63.00
2018-06-05T04:48:19.799Z,62.60
2018-06-05T04:50:50.201Z,62.60
2018-06-05T04:55:50.454Z,62.50
2018-06-05T04:58:21.097Z,62.40
2018-06-05T05:00:51.682Z,62.50
2018-06-05T05:03:22.095Z,62.50
2018-06-05T05:08:22.335Z,62.40
2018-06-05T05:10:52.859Z,62.40
2018-06-05T05:13:23.304Z,62.50
2018-06-05T05:15:53.664Z,62.50
2018-06-05T05:18:24.003Z,62.10
2018-06-05T05:20:55.239Z,61.90
2018-06-05T05:23:25.653Z,62.20
2018-06-05T05:25:56.004Z,61.60
2018-06-05T05:28:26.307Z,62.00
2018-06-05T05:30:56.746Z,61.00
2018-06-05T05:33:27.015Z,60.40
2018-06-05T05:38:27.252Z,59.60
2018-06-05T05:40:57.640Z,59.60
2018-06-05T05:43:28.024Z,59.10
2018-06-05T05:45:58.411Z,59.60
2018-06-05T05:48:28.807Z,58.50
2018-06-05T05:50:59.171Z,58.50
2018-06-05T05:58:29.329Z,58.10
2018-06-05T06:00:59.737Z,58.00
2018-06-05T06:03:30.052Z,58.10
2018-06-05T06:08:30.276Z,58.10
2018-06-05T06:11:00.712Z,57.50
2018-06-05T06:13:31.160Z,58.20
2018-06-05T06:16:01.494Z,58.10
2018-06-05T06:18:31.905Z,57.40
2018-06-05T06:21:02.156Z,57.10
2018-06-05T06:23:32.502Z,57.30
2018-06-05T06:26:03.037Z,57.10
2018-06-05T06:28:33.518Z,56.60
2018-06-05T06:31:03.841Z,56.90
2018-06-05T06:33:34.120Z,56.70
2018-06-05T06:38:34.510Z,57.10
2018-06-05T06:41:04.908Z,57.30
2018-06-05T06:43:35.270Z,57.80
2018-06-05T06:48:36.091Z,58.10
2018-06-05T06:51:06.391Z,58.10
2018-06-05T06:53:36.749Z,58.00
2018-06-05T06:56:07.233Z,58.10
2018-06-05T06:58:37.656Z,58.10
2018-06-05T07:01:07.945Z,58.10
2018-06-05T07:03:38.269Z,58.20
2018-06-05T07:06:08.771Z,57.40
2018-06-05T07:08:39.180Z,57.80
2018-06-05T07:11:09.704Z,57.50
2018-06-05T07:13:40.055Z,57.30
2018-06-05T07:16:10.355Z,58.20
2018-06-05T07:18:40.720Z,58.20
2018-06-05T07:21:11.015Z,57.20
2018-06-05T07:23:41.420Z,56.70
2018-06-05T07:28:42.840Z,55.40
2018-06-05T07:31:13.211Z,55.40
2018-06-05T07:33:43.558Z,55.10
2018-06-05T07:36:14.805Z,54.10
2018-06-05T07:38:45.263Z,54.20
2018-06-05T07:41:15.707Z,54.20
2018-06-05T07:43:45.990Z,54.20
2018-06-05T07:48:46.273Z,54.10
2018-06-05T07:51:16.701Z,54.10
2018-06-05T07:53:47.039Z,54.20
2018-06-05T07:58:47.229Z,53.50
2018-06-05T08:01:17.661Z,53.20
2018-06-05T08:03:47.943Z,53.20
2018-06-05T08:06:18.230Z,52.70
2018-06-05T08:08:48.559Z,52.20
2018-06-05T08:11:18.859Z,51.30
2018-06-05T08:13:49.304Z,50.50
2018-06-05T08:16:19.580Z,50.50
2018-06-05T08:21:19.834Z,50.70
2018-06-05T08:23:50.157Z,49.80
2018-06-05T08:26:20.591Z,50.70
2018-06-05T08:28:50.968Z,50.80
2018-06-05T08:33:51.211Z,49.60
2018-06-05T08:36:21.486Z,49.40
2018-06-05T08:38:51.840Z,49.30
2018-06-05T08:41:22.224Z,49.60
2018-06-05T08:43:52.563Z,48.90
2018-06-05T08:46:23.075Z,48.70
2018-06-05T08:48:53.395Z,48.80
2018-06-05T08:51:23.731Z,49.30
2018-06-05T08:53:54.094Z,49.50
2018-06-05T08:56:24.382Z,49.90
2018-06-05T08:58:54.968Z,49.40
2018-06-05T09:01:25.244Z,49.70
2018-06-05T09:03:55.575Z,49.30
2018-06-05T09:06:25.890Z,49.50
2018-06-05T09:08:56.333Z,49.60
2018-06-05T09:11:26.799Z,50.00
2018-06-05T09:13:57.088Z,49.00
2018-06-05T09:18:57.358Z,48.60
2018-06-05T09:23:57.562Z,48.40
2018-06-05T09:26:27.867Z,47.80
2018-06-05T09:28:58.213Z,47.90
2018-06-05T09:33:58.501Z,48.20
2018-06-05T09:36:28.857Z,47.30
2018-06-05T09:38:59.252Z,47.30
2018-06-05T09:43:59.490Z,47.30
2018-06-05T09:46:29.779Z,47.20
2018-06-05T09:49:00.247Z,48.10
2018-06-05T09:54:00.449Z,47.50
2018-06-05T09:56:30.852Z,48.20
2018-06-05T09:59:01.181Z,48.70
2018-06-05T10:01:31.480Z,48.30
2018-06-05T10:04:01.847Z,48.20
2018-06-05T10:06:32.254Z,48.70
2018-06-05T10:09:02.610Z,48.20
2018-06-05T10:11:33.000Z,48.60
2018-06-05T10:14:03.513Z,48.60
2018-06-05T10:16:33.825Z,48.50
2018-06-05T10:21:34.122Z,48.70
2018-06-05T10:24:04.389Z,48.20
2018-06-05T10:26:34.695Z,48.90
2018-06-05T10:29:05.020Z,48.90
2018-06-05T10:34:05.328Z,50.40
2018-06-05T10:36:35.627Z,49.90
2018-06-05T10:39:08.459Z,49.50
2018-06-05T10:41:38.904Z,49.70
2018-06-05T10:44:09.267Z,50.60
2018-06-05T10:46:39.638Z,49.90
2018-06-05T10:49:10.043Z,50.10
2018-06-05T10:51:40.420Z,50.00
2018-06-05T10:54:10.875Z,49.60
2018-06-05T10:56:41.174Z,50.80
2018-06-05T10:59:11.463Z,50.20
2018-06-05T11:01:41.870Z,50.30
2018-06-05T11:04:12.234Z,51.20
2018-06-05T11:09:41.578Z,51.60
2018-06-05T11:14:41.928Z,51.90
2018-06-05T11:17:12.280Z,51.40
2018-06-05T11:19:42.592Z,52.10
2018-06-05T11:22:12.947Z,52.10
2018-06-05T11:24:43.320Z,51.20
2018-06-05T11:27:13.598Z,51.30
2018-06-05T11:29:43.877Z,51.40
2018-06-05T11:32:14.249Z,51.20
2018-06-05T11:34:44.650Z,51.20
2018-06-05T11:37:14.924Z,52.30
2018-06-05T11:39:45.238Z,52.20
2018-06-05T11:44:48.732Z,52.00
2018-06-05T11:47:19.074Z,51.90
2018-06-05T11:49:49.427Z,51.40
2018-06-05T11:52:19.876Z,51.10
2018-06-05T11:54:50.228Z,50.60
2018-06-05T11:57:20.643Z,51.20
2018-06-05T11:59:50.949Z,50.60
2018-06-05T12:02:21.432Z,50.40
2018-06-05T12:04:51.795Z,48.10
2018-06-05T12:07:22.137Z,48.30
2018-06-05T12:09:52.402Z,46.70
2018-06-05T12:12:22.708Z,45.30
2018-06-05T12:14:53.116Z,45.30
2018-06-05T12:17:23.443Z,45.90
2018-06-05T12:19:53.755Z,45.20
2018-06-05T12:22:24.039Z,44.60
2018-06-05T12:24:54.359Z,44.60
2018-06-05T12:27:24.778Z,44.80
2018-06-05T12:29:55.032Z,45.10
2018-06-05T12:32:25.504Z,45.70
2018-06-05T12:34:55.879Z,47.80
2018-06-05T12:39:56.492Z,45.60
2018-06-05T12:42:26.910Z,46.40
2018-06-05T12:44:57.236Z,47.20
2018-06-05T12:49:57.783Z,45.60
2018-06-05T12:52:28.197Z,44.30
2018-06-05T12:54:58.494Z,43.90
2018-06-05T12:59:58.793Z,42.80
2018-06-05T13:02:29.194Z,43.70
2018-06-05T13:04:59.583Z,44.60
2018-06-05T13:07:29.962Z,44.00
2018-06-05T13:10:00.300Z,44.10
2018-06-05T13:12:30.664Z,44.30
2018-06-05T13:15:01.088Z,43.00
2018-06-05T13:17:31.398Z,43.60
2018-06-05T13:20:01.687Z,41.70
2018-06-05T13:25:01.913Z,40.70
2018-06-05T13:27:32.274Z,40.60
2018-06-05T13:30:02.584Z,40.60
2018-06-05T13:32:33.073Z,40.60
2018-06-05T13:37:33.411Z,40.40
2018-06-05T13:40:03.731Z,40.80
2018-06-05T13:42:34.271Z,40.60
2018-06-05T13:45:04.599Z,41.20
2018-06-05T13:47:34.968Z,40.60
2018-06-05T13:50:05.369Z,39.50
2018-06-05T13:52:35.732Z,40.40
2018-06-05T13:55:06.114Z,40.40
2018-06-05T13:57:36.420Z,40.50
2018-06-05T14:00:06.980Z,40.40
2018-06-05T14:02:37.315Z,40.50
2018-06-05T14:05:08.016Z,39.30
2018-06-05T14:07:38.334Z,38.70
2018-06-05T14:10:08.604Z,39.70
2018-06-05T14:12:38.969Z,42.60
2018-06-05T14:15:09.298Z,44.00
2018-06-05T14:17:39.657Z,44.10
2018-06-05T14:20:09.993Z,44.20
2018-06-05T14:22:40.402Z,43.20
2018-06-05T14:25:10.644Z,43.40
2018-06-05T14:27:40.955Z,43.40
2018-06-05T14:30:11.288Z,43.20
2018-06-05T14:32:41.681Z,43.20
2018-06-05T14:35:12.022Z,43.30
2018-06-05T14:37:42.330Z,43.30
2018-06-05T14:40:12.657Z,43.50
2018-06-05T14:42:43.038Z,43.50
2018-06-05T14:45:13.430Z,43.60
2018-06-05T14:47:43.616Z,42.90
2018-06-05T14:50:14.001Z,43.30
2018-06-05T14:55:14.379Z,43.80
2018-06-05T14:57:44.668Z,43.70
2018-06-05T15:00:14.975Z,43.40
2018-06-05T15:02:45.340Z,44.20
2018-06-05T15:05:15.661Z,44.50
2018-06-05T15:07:46.002Z,43.90
2018-06-05T15:10:16.360Z,44.40
2018-06-05T15:12:46.715Z,44.40
2018-06-05T15:15:17.127Z,43.50
2018-06-05T15:17:47.425Z,43.60
2018-06-05T15:20:17.809Z,43.10
2018-06-05T15:22:48.122Z,43.20
2018-06-05T15:25:18.703Z,43.90
2018-06-05T15:27:49.060Z,44.00
2018-06-05T15:30:19.347Z,42.30
2018-06-05T15:35:19.934Z,42.80
2018-06-05T15:37:50.222Z,43.90
2018-06-05T15:40:20.556Z,43.40
2018-06-05T15:42:50.995Z,42.90
2018-06-05T15:45:21.986Z,43.70
2018-06-05T15:50:22.092Z,44.50
2018-06-05T15:52:52.395Z,45.40
2018-06-05T15:55:22.708Z,43.40
2018-06-05T15:57:53.108Z,44.30
2018-06-05T16:00:23.549Z,42.70
2018-06-05T16:02:53.879Z,42.80
2018-06-05T16:05:24.247Z,43.40
2018-06-05T16:07:54.787Z,43.60
2018-06-05T16:10:25.286Z,43.30
2018-06-05T16:12:55.676Z,43.20
2018-06-05T16:15:26.116Z,43.80
2018-06-05T16:17:56.383Z,43.40
2018-06-05T16:20:26.851Z,43.30
2018-06-05T16:22:57.232Z,42.70
2018-06-05T16:25:27.617Z,42.20
2018-06-05T16:27:57.929Z,41.90
2018-06-05T16:30:28.364Z,42.90
2018-06-05T16:32:58.768Z,43.00
2018-06-05T16:35:29.090Z,43.00
2018-06-05T16:37:59.466Z,43.20
2018-06-05T16:40:29.810Z,42.70
2018-06-05T16:43:00.262Z,42.70
2018-06-05T16:45:30.547Z,44.40
2018-06-05T16:48:00.879Z,42.80
2018-06-05T16:53:01.078Z,43.80
2018-06-05T16:55:31.456Z,42.50
2018-06-05T16:58:01.769Z,42.80
2018-06-05T17:00:32.028Z,42.50
2018-06-05T17:03:02.369Z,41.20
2018-06-05T17:05:32.768Z,40.90
2018-06-05T17:08:03.256Z,40.60
2018-06-05T17:10:33.553Z,41.20
2018-06-05T17:13:03.844Z,41.60
2018-06-05T17:15:34.243Z,41.30
2018-06-05T17:18:04.621Z,38.80
2018-06-05T17:20:34.935Z,36.70
2018-06-05T17:23:05.325Z,37.50
2018-06-05T17:30:35.707Z,37.60
2018-06-05T17:33:06.047Z,38.50
2018-06-05T17:35:37.227Z,39.60
2018-06-05T17:38:07.515Z,39.00
2018-06-05T17:40:38.084Z,39.40
2018-06-05T17:43:08.413Z,38.50
2018-06-05T17:45:38.917Z,38.40
2018-06-05T17:50:39.023Z,38.40
2018-06-05T17:53:09.465Z,38.30
2018-06-05T17:55:39.903Z,39.90
2018-06-05T17:58:10.185Z,40.00
2018-06-05T18:03:10.461Z,39.10
2018-06-05T18:05:41.240Z,39.20
2018-06-05T18:08:11.620Z,36.60
2018-06-05T18:10:41.920Z,34.70
2018-06-05T18:13:12.356Z,31.90
2018-06-05T18:15:42.737Z,29.50
2018-06-05T18:18:13.092Z,29.10
2018-06-05T18:20:43.396Z,29.50
2018-06-05T18:23:13.830Z,29.50
2018-06-05T18:25:44.146Z,28.80
2018-06-05T18:28:14.459Z,28.70
2018-06-05T18:35:45.424Z,27.40
2018-06-05T18:38:15.820Z,27.60
2018-06-05T18:45:45.994Z,28.40
2018-06-05T18:48:16.536Z,27.50
2018-06-05T18:50:46.935Z,28.20
2018-06-05T18:53:17.211Z,28.10
2018-06-05T18:55:47.680Z,28.10
2018-06-05T18:58:17.939Z,28.00
2018-06-05T19:00:48.385Z,29.20
2018-06-05T19:03:18.772Z,29.00
2018-06-05T19:05:49.120Z,29.70
2018-06-05T19:08:19.442Z,29.80
2018-06-05T19:10:49.839Z,30.20
2018-06-05T19:13:20.223Z,31.00
2018-06-05T19:15:50.683Z,31.30
2018-06-05T19:18:20.985Z,31.70
2018-06-05T19:20:51.380Z,32.30
2018-06-05T19:23:21.822Z,32.50
2018-06-05T19:28:22.199Z,33.30
2018-06-05T19:30:52.560Z,32.80
2018-06-05T19:33:22.917Z,32.80
2018-06-05T19:35:53.226Z,32.60
2018-06-05T19:38:23.588Z,32.80
2018-06-05T19:40:54.046Z,32.90
2018-06-05T19:43:24.505Z,33.10
2018-06-05T19:45:55.172Z,33.30
2018-06-05T19:48:25.499Z,33.80
2018-06-05T19:50:55.801Z,34.60
2018-06-05T19:53:26.234Z,34.30
2018-06-05T19:55:56.655Z,35.20
2018-06-05T20:00:56.959Z,32.10
2018-06-05T20:03:28.050Z,32.60
2018-06-05T20:05:58.425Z,31.50
2018-06-05T20:08:28.775Z,31.10
2018-06-05T20:10:59.472Z,31.10
2018-06-05T20:13:29.918Z,31.20
2018-06-05T20:16:00.162Z,31.30
2018-06-05T20:18:30.543Z,31.20
2018-06-05T20:21:00.875Z,31.40
2018-06-05T20:23:31.231Z,31.60
2018-06-05T20:26:01.737Z,31.90
2018-06-05T20:28:32.039Z,32.30
2018-06-05T20:31:02.396Z,32.80
2018-06-05T20:33:32.662Z,32.60
2018-06-05T20:38:33.081Z,33.00
2018-06-05T20:41:03.418Z,33.00
2018-06-05T20:43:33.805Z,33.50
2018-06-05T20:46:04.180Z,34.30
2018-06-05T20:48:34.549Z,34.10
2018-06-05T20:51:04.966Z,34.10
2018-06-05T20:53:35.238Z,34.00
2018-06-05T20:56:05.687Z,34.10
2018-06-05T20:58:35.955Z,33.60
2018-06-05T21:03:36.220Z,33.20
2018-06-05T21:06:06.524Z,33.20
2018-06-05T21:08:36.961Z,33.00
2018-06-05T21:11:07.432Z,33.90
2018-06-05T21:13:37.840Z,33.80
2018-06-05T21:16:08.206Z,33.70
2018-06-05T21:18:38.503Z,33.60
2018-06-05T21:21:09.021Z,33.60
2018-06-05T21:23:39.287Z,33.50
2018-06-05T21:26:09.627Z,33.50
2018-06-05T21:28:39.867Z,33.50
2018-06-05T21:31:10.549Z,33.60
2018-06-05T21:33:40.888Z,34.50
2018-06-05T21:36:11.199Z,34.50
2018-06-05T21:38:41.530Z,34.60
2018-06-05T21:41:11.819Z,34.70
2018-06-05T21:46:12.380Z,35.20
2018-06-05T21:48:42.642Z,35.40
2018-06-05T21:51:13.105Z,35.70
2018-06-05T21:53:43.457Z,36.10
2018-06-05T21:56:13.847Z,36.00
2018-06-05T21:58:44.157Z,36.80
2018-06-05T22:01:14.604Z,36.50
2018-06-05T22:03:44.988Z,36.70
2018-06-05T22:06:15.546Z,36.70
2018-06-05T22:08:45.873Z,37.20
2018-06-05T22:11:16.265Z,37.40
2018-06-05T22:13:46.587Z,37.50
2018-06-05T22:16:17.072Z,37.40
2018-06-05T22:18:47.406Z,37.70
2018-06-05T22:21:17.698Z,38.50
2018-06-05T22:23:48.071Z,38.20
2018-06-05T22:26:18.400Z,38.60
2018-06-05T22:28:48.663Z,38.60
2018-06-05T22:31:19.563Z,38.70
2018-06-05T22:33:49.952Z,38.80
2018-06-05T22:36:20.868Z,39.20
2018-06-05T22:38:51.159Z,39.70
2018-06-05T22:41:21.532Z,40.00
2018-06-05T22:43:51.826Z,40.10
2018-06-05T22:46:22.264Z,40.20
2018-06-05T22:48:52.889Z,40.70
2018-06-05T22:51:23.227Z,40.80
2018-06-05T22:53:53.563Z,41.20
2018-06-05T22:56:23.856Z,41.50
2018-06-05T23:01:24.151Z,41.50
2018-06-05T23:03:54.543Z,41.60
2018-06-05T23:06:24.921Z,41.80
2018-06-05T23:08:55.278Z,41.80
2018-06-05T23:11:25.615Z,42.30
2018-06-05T23:13:55.934Z,42.30
2018-06-05T23:18:56.929Z,43.10
2018-06-05T23:21:27.281Z,43.30
2018-06-05T23:23:57.598Z,43.70
2018-06-05T23:26:27.922Z,43.90
2018-06-05T23:28:58.239Z,44.00
2018-06-05T23:31:28.580Z,44.20
2018-06-05T23:33:59.001Z,44.50
2018-06-05T23:36:29.232Z,44.60
2018-06-05T23:38:59.544Z,44.60
2018-06-05T23:41:29.868Z,44.80
2018-06-05T23:44:00.237Z,45.10
2018-06-05T23:46:30.616Z,45.70
2018-06-05T23:49:00.882Z,45.60
2018-06-05T23:51:31.171Z,46.10
2018-06-05T23:54:01.585Z,45.50
2018-06-05T23:56:31.931Z,45.40
2018-06-05T23:59:02.271Z,45.70
